Muzaffargarh Weather



Muzaffargarh's Current Weather

Temprature 29o clear sky

clear sky

Rain: 0 %

Min Temprature29o
Max Temprature29o
Humidity37
Wind Speed7.2 m/h
Sun Rise06:18:32
Sun Set17:42:09
Current Time: 18-Oct-2019 15:50:07
Lat/Lon: 30.08, 71.19




Muzaffargarh's Geo Location



Muzaffargarh's Weather Forecast

Time Overall Temp Min Temp Max Temp Humidity Wind Speed Rain
18-Oct-2019 (Fri)
17:00:00 clear sky 28.080 28.080 33.870 17 4.69 m/h 0 %
20:00:00 clear sky 21.690 21.690 26.030 38 5.32 m/h 0 %
23:00:00 clear sky 22.080 22.080 24.978 38 5.22 m/h 0 %
19-Oct-2019 (Sat)
02:00:00 broken clouds 22.270 22.270 23.718 42 4.78 m/h 0 %
05:00:00 scattered clouds 21.673 21.673 21.673 51 3.56 m/h 0 %
08:00:00 clear sky 25.731 25.731 25.731 40 5.94 m/h 0 %
11:00:00 clear sky 32.450 32.450 32.450 23 5.42 m/h 0 %
14:00:00 clear sky 34.696 34.696 34.696 20 4.05 m/h 0 %
17:00:00 clear sky 32.922 32.922 32.922 21 3.14 m/h 0 %
20:00:00 clear sky 27.868 27.868 27.868 28 2.65 m/h 0 %
23:00:00 clear sky 25.787 25.787 25.787 30 2.27 m/h 0 %
20-Oct-2019 (Sun)
02:00:00 clear sky 24.377 24.377 24.377 33 2.07 m/h 0 %
05:00:00 few clouds 24.184 24.184 24.184 32 1.83 m/h 0 %
08:00:00 overcast clouds 27.052 27.052 27.052 27 1.62 m/h 0 %
11:00:00 scattered clouds 33.890 33.890 33.890 17 1.95 m/h 0 %
14:00:00 clear sky 36.522 36.522 36.522 11 1.2 m/h 0 %
17:00:00 clear sky 33.818 33.818 33.818 12 0.99 m/h 0 %
20:00:00 clear sky 27.362 27.362 27.362 17 0.42 m/h 0 %
23:00:00 clear sky 25.647 25.647 25.647 20 1.12 m/h 0 %
21-Oct-2019 (Mon)
02:00:00 clear sky 24.370 24.370 24.370 20 0.86 m/h 0 %
05:00:00 clear sky 23.211 23.211 23.211 22 1.88 m/h 0 %
08:00:00 clear sky 26.809 26.809 26.809 19 1.99 m/h 0 %
11:00:00 clear sky 33.967 33.967 33.967 13 1.44 m/h 0 %
14:00:00 clear sky 36.455 36.455 36.455 10 2.87 m/h 0 %
17:00:00 clear sky 33.654 33.654 33.654 10 1.24 m/h 0 %
20:00:00 clear sky 27.244 27.244 27.244 17 1.38 m/h 0 %
23:00:00 clear sky 25.590 25.590 25.590 18 1.8 m/h 0 %
22-Oct-2019 (Tue)
02:00:00 clear sky 23.396 23.396 23.396 21 0.41 m/h 0 %
05:00:00 clear sky 22.709 22.709 22.709 23 0.94 m/h 0 %
08:00:00 clear sky 27.042 27.042 27.042 18 1.31 m/h 0 %
11:00:00 clear sky 34.009 34.009 34.009 12 1.91 m/h 0 %
14:00:00 clear sky 36.839 36.839 36.839 8 1.86 m/h 0 %
17:00:00 clear sky 33.862 33.862 33.862 8 1.85 m/h 0 %
20:00:00 clear sky 27.650 27.650 27.650 12 1.67 m/h 0 %
23:00:00 clear sky 25.509 25.509 25.509 17 3.39 m/h 0 %
23-Oct-2019 (Wed)
02:00:00 clear sky 24.426 24.426 24.426 18 2.31 m/h 0 %
05:00:00 clear sky 22.537 22.537 22.537 19 1.31 m/h 0 %
08:00:00 clear sky 27.659 27.659 27.659 15 1.21 m/h 0 %
11:00:00 clear sky 35.275 35.275 35.275 9 3.03 m/h 0 %
14:00:00 clear sky 36.949 36.949 36.949 8 2.5 m/h 0 %

Famous Cities (61)